EHKD/DHR METAR and TAF weather

Enter ICAO airport designator
Station Type Date Time Source
EHKD METAR 2019/02/20 07:55 UTC NOAA

EHKD 200755Z AUTO 21012KT 170V250 9999 FEW005 BKN059 OVC065 07/06 Q1019 BLU 22012KT CAVOK TEMPO SCT007


Station Type Date Time Source
EHKD Decoded METAR 2019/02/20 07:55 UTC NOAA

De Kooy, Netherlands (EHKD) 52-55N 004-47E 14M
Feb 20, 2019 - 02:55 AM EST / 2019.02.20 0755 UTC
Wind: from the SSW (210 degrees) at 14 MPH (12 KT) (direction variable):0
Visibility: greater than 7 mile(s):0
Sky conditions: overcast
Temperature: 44 F (7 C)
Dew Point: 42 F (6 C)
Relative Humidity: 93%
Pressure (altimeter): 30.09 in. Hg (1019 hPa)
ob: EHKD 200755Z AUTO 21012KT 170V250 9999 FEW005 BKN059 OVC065 07/06 Q1019 BLU 22012KT CAVOK TEMPO SCT007
cycle: 8

Station Type Date Time Source
EHKD TAF 2019/02/20 06:57 UTC NOAA

TAF TAF EHKD 200507Z 2006/2018 22011KT CAVOK


Example: see airport list